sensor_id;sensor_type;location;lat;lon;timestamp;temperature;humidity
13794;DHT22;31160;49.500;7.772;2023-11-19T00:00:08;8.50;99.90
13794;DHT22;31160;49.500;7.772;2023-11-19T00:02:40;8.60;99.90
13794;DHT22;31160;49.500;7.772;2023-11-19T00:05:08;8.60;99.90
13794;DHT22;31160;49.500;7.772;2023-11-19T00:07:36;8.60;99.90
13794;DHT22;31160;49.500;7.772;2023-11-19T00:10:03;8.60;99.90
13794;DHT22;31160;49.500;7.772;2023-11-19T00:12:33;8.60;99.90
13794;DHT22;31160;49.500;7.772;2023-11-19T00:15:00;8.60;99.90
13794;DHT22;31160;49.500;7.772;2023-11-19T00:17:27;8.70;99.90
13794;DHT22;31160;49.500;7.772;2023-11-19T00:19:54;8.70;99.90
13794;DHT22;31160;49.500;7.772;2023-11-19T00:22:22;8.70;99.90
13794;DHT22;31160;49.500;7.772;2023-11-19T00:24:50;8.70;99.90
13794;DHT22;31160;49.500;7.772;2023-11-19T00:27:17;8.70;99.90
13794;DHT22;31160;49.500;7.772;2023-11-19T00:29:44;8.70;99.90
13794;DHT22;31160;49.500;7.772;2023-11-19T00:32:13;8.80;99.90
13794;DHT22;31160;49.500;7.772;2023-11-19T00:34:45;8.80;99.90
13794;DHT22;31160;49.500;7.772;2023-11-19T00:37:15;8.80;99.90
13794;DHT22;31160;49.500;7.772;2023-11-19T00:39:43;8.70;99.90
13794;DHT22;31160;49.500;7.772;2023-11-19T00:42:10;8.70;99.90
13794;DHT22;31160;49.500;7.772;2023-11-19T00:44:37;8.70;99.90
13794;DHT22;31160;49.500;7.772;2023-11-19T00:47:04;8.70;99.90
13794;DHT22;31160;49.500;7.772;2023-11-19T00:49:31;8.70;99.90
13794;DHT22;31160;49.500;7.772;2023-11-19T00:52:01;8.60;99.90
13794;DHT22;31160;49.500;7.772;2023-11-19T00:54:28;8.70;99.90
13794;DHT22;31160;49.500;7.772;2023-11-19T00:56:56;8.80;99.90
13794;DHT22;31160;49.500;7.772;2023-11-19T00:59:23;8.80;99.90
13794;DHT22;31160;49.500;7.772;2023-11-19T01:01:50;8.80;99.90
13794;DHT22;31160;49.500;7.772;2023-11-19T01:04:19;8.80;99.90
13794;DHT22;31160;49.500;7.772;2023-11-19T01:06:46;8.80;99.90
13794;DHT22;31160;49.500;7.772;2023-11-19T01:09:15;8.90;99.90
13794;DHT22;31160;49.500;7.772;2023-11-19T01:11:42;8.90;99.90
13794;DHT22;31160;49.500;7.772;2023-11-19T01:14:09;8.80;99.90
13794;DHT22;31160;49.500;7.772;2023-11-19T01:16:35;8.80;99.90
13794;DHT22;31160;49.500;7.772;2023-11-19T01:19:03;8.90;99.90
13794;DHT22;31160;49.500;7.772;2023-11-19T01:21:43;9.00;99.90
13794;DHT22;31160;49.500;7.772;2023-11-19T01:24:10;8.90;99.90
13794;DHT22;31160;49.500;7.772;2023-11-19T01:26:40;8.90;99.90
13794;DHT22;31160;49.500;7.772;2023-11-19T01:29:12;8.90;99.90
13794;DHT22;31160;49.500;7.772;2023-11-19T01:31:43;9.00;99.90
13794;DHT22;31160;49.500;7.772;2023-11-19T01:34:12;9.00;99.90
13794;DHT22;31160;49.500;7.772;2023-11-19T01:36:39;9.00;99.90
13794;DHT22;31160;49.500;7.772;2023-11-19T01:39:06;8.90;99.90
13794;DHT22;31160;49.500;7.772;2023-11-19T01:41:36;9.00;99.90
13794;DHT22;31160;49.500;7.772;2023-11-19T01:44:03;8.90;99.90
13794;DHT22;31160;49.500;7.772;2023-11-19T01:46:32;9.00;99.90
13794;DHT22;31160;49.500;7.772;2023-11-19T01:49:00;9.00;99.90
13794;DHT22;31160;49.500;7.772;2023-11-19T01:51:27;9.00;99.90
13794;DHT22;31160;49.500;7.772;2023-11-19T01:53:55;9.10;99.90
13794;DHT22;31160;49.500;7.772;2023-11-19T01:56:24;9.10;99.90
13794;DHT22;31160;49.500;7.772;2023-11-19T01:58:54;9.10;99.90
13794;DHT22;31160;49.500;7.772;2023-11-19T02:01:22;9.10;99.90
13794;DHT22;31160;49.500;7.772;2023-11-19T02:03:50;9.10;99.90
13794;DHT22;31160;49.500;7.772;2023-11-19T02:06:17;9.10;99.90
13794;DHT22;31160;49.500;7.772;2023-11-19T02:08:44;9.10;99.90
13794;DHT22;31160;49.500;7.772;2023-11-19T02:11:11;9.10;99.90
13794;DHT22;31160;49.500;7.772;2023-11-19T02:13:38;9.20;99.90
13794;DHT22;31160;49.500;7.772;2023-11-19T02:16:06;9.20;99.90
13794;DHT22;31160;49.500;7.772;2023-11-19T02:18:33;9.20;99.90
13794;DHT22;31160;49.500;7.772;2023-11-19T02:21:00;9.20;99.90
13794;DHT22;31160;49.500;7.772;2023-11-19T02:23:27;9.30;99.90
13794;DHT22;31160;49.500;7.772;2023-11-19T02:28:43;9.20;99.90
13794;DHT22;31160;49.500;7.772;2023-11-19T02:31:10;9.30;99.90
13794;DHT22;31160;49.500;7.772;2023-11-19T02:33:38;9.30;99.90
13794;DHT22;31160;49.500;7.772;2023-11-19T02:36:06;9.30;99.90
13794;DHT22;31160;49.500;7.772;2023-11-19T02:38:34;9.20;99.90
13794;DHT22;31160;49.500;7.772;2023-11-19T02:41:06;9.20;99.90
13794;DHT22;31160;49.500;7.772;2023-11-19T02:43:34;9.30;99.90
13794;DHT22;31160;49.500;7.772;2023-11-19T02:46:04;9.40;99.90
13794;DHT22;31160;49.500;7.772;2023-11-19T02:48:37;9.30;99.90
13794;DHT22;31160;49.500;7.772;2023-11-19T02:51:05;9.30;99.90
13794;DHT22;31160;49.500;7.772;2023-11-19T02:53:36;9.50;99.90
13794;DHT22;31160;49.500;7.772;2023-11-19T02:56:04;9.40;99.90
13794;DHT22;31160;49.500;7.772;2023-11-19T02:58:46;9.40;99.90
13794;DHT22;31160;49.500;7.772;2023-11-19T03:01:14;9.30;99.90
13794;DHT22;31160;49.500;7.772;2023-11-19T03:03:50;9.30;99.90
13794;DHT22;31160;49.500;7.772;2023-11-19T03:06:24;9.40;99.90
13794;DHT22;31160;49.500;7.772;2023-11-19T03:08:51;9.40;99.90
13794;DHT22;31160;49.500;7.772;2023-11-19T03:11:18;9.30;99.90
13794;DHT22;31160;49.500;7.772;2023-11-19T03:13:45;9.40;99.90
13794;DHT22;31160;49.500;7.772;2023-11-19T03:16:13;9.40;99.90
13794;DHT22;31160;49.500;7.772;2023-11-19T03:18:40;9.30;99.90
13794;DHT22;31160;49.500;7.772;2023-11-19T03:21:07;9.40;99.90
13794;DHT22;31160;49.500;7.772;2023-11-19T03:23:37;9.40;99.90
13794;DHT22;31160;49.500;7.772;2023-11-19T03:26:04;9.50;99.90
13794;DHT22;31160;49.500;7.772;2023-11-19T03:28:32;9.50;99.90
13794;DHT22;31160;49.500;7.772;2023-11-19T03:30:59;9.50;99.90
13794;DHT22;31160;49.500;7.772;2023-11-19T03:33:26;9.60;99.90
13794;DHT22;31160;49.500;7.772;2023-11-19T03:35:56;9.60;99.90
13794;DHT22;31160;49.500;7.772;2023-11-19T03:38:24;9.60;99.90
13794;DHT22;31160;49.500;7.772;2023-11-19T03:40:51;9.60;99.90
13794;DHT22;31160;49.500;7.772;2023-11-19T03:43:18;9.70;99.90
13794;DHT22;31160;49.500;7.772;2023-11-19T03:45:48;9.60;99.90
13794;DHT22;31160;49.500;7.772;2023-11-19T03:48:15;9.70;99.90
13794;DHT22;31160;49.500;7.772;2023-11-19T03:50:43;9.70;99.90
13794;DHT22;31160;49.500;7.772;2023-11-19T03:53:11;9.70;99.90
13794;DHT22;31160;49.500;7.772;2023-11-19T03:55:38;9.70;99.90
13794;DHT22;31160;49.500;7.772;2023-11-19T03:58:04;9.80;99.90
13794;DHT22;31160;49.500;7.772;2023-11-19T04:00:32;9.90;99.90
13794;DHT22;31160;49.500;7.772;2023-11-19T04:02:59;9.90;99.90
13794;DHT22;31160;49.500;7.772;2023-11-19T04:05:26;9.90;99.90
13794;DHT22;31160;49.500;7.772;2023-11-19T04:07:52;9.90;99.90
13794;DHT22;31160;49.500;7.772;2023-11-19T04:10:19;9.90;99.90
13794;DHT22;31160;49.500;7.772;2023-11-19T04:12:47;10.00;99.90
13794;DHT22;31160;49.500;7.772;2023-11-19T04:15:14;10.00;99.90
13794;DHT22;31160;49.500;7.772;2023-11-19T04:17:41;10.00;99.90
13794;DHT22;31160;49.500;7.772;2023-11-19T04:20:08;10.00;99.90
13794;DHT22;31160;49.500;7.772;2023-11-19T04:22:40;10.10;99.90
13794;DHT22;31160;49.500;7.772;2023-11-19T04:25:08;10.10;99.90
13794;DHT22;31160;49.500;7.772;2023-11-19T04:27:35;10.10;99.90
13794;DHT22;31160;49.500;7.772;2023-11-19T04:30:02;10.10;99.90
13794;DHT22;31160;49.500;7.772;2023-11-19T04:32:30;10.10;99.90
13794;DHT22;31160;49.500;7.772;2023-11-19T04:34:57;10.20;99.90
13794;DHT22;31160;49.500;7.772;2023-11-19T04:37:23;10.10;99.90
13794;DHT22;31160;49.500;7.772;2023-11-19T04:39:50;10.20;99.90
13794;DHT22;31160;49.500;7.772;2023-11-19T04:42:17;10.20;99.90
13794;DHT22;31160;49.500;7.772;2023-11-19T04:44:44;10.20;99.90
13794;DHT22;31160;49.500;7.772;2023-11-19T04:47:11;10.20;99.90
13794;DHT22;31160;49.500;7.772;2023-11-19T04:49:41;10.30;99.90
13794;DHT22;31160;49.500;7.772;2023-11-19T04:52:11;10.30;99.90
13794;DHT22;31160;49.500;7.772;2023-11-19T04:54:42;10.30;99.90
13794;DHT22;31160;49.500;7.772;2023-11-19T04:57:10;10.30;99.90
13794;DHT22;31160;49.500;7.772;2023-11-19T04:59:40;10.40;99.90
13794;DHT22;31160;49.500;7.772;2023-11-19T05:02:08;10.40;99.90
13794;DHT22;31160;49.500;7.772;2023-11-19T05:04:35;10.40;99.90
13794;DHT22;31160;49.500;7.772;2023-11-19T05:07:03;10.50;99.90
13794;DHT22;31160;49.500;7.772;2023-11-19T05:09:31;10.40;99.90
13794;DHT22;31160;49.500;7.772;2023-11-19T05:11:57;10.50;99.90
13794;DHT22;31160;49.500;7.772;2023-11-19T05:14:24;10.40;99.90
13794;DHT22;31160;49.500;7.772;2023-11-19T05:16:51;10.40;99.90
13794;DHT22;31160;49.500;7.772;2023-11-19T05:19:18;10.40;99.90
13794;DHT22;31160;49.500;7.772;2023-11-19T05:21:45;10.40;99.90
13794;DHT22;31160;49.500;7.772;2023-11-19T05:24:11;10.40;99.90
13794;DHT22;31160;49.500;7.772;2023-11-19T05:26:38;10.50;99.90
13794;DHT22;31160;49.500;7.772;2023-11-19T05:29:05;10.50;99.90
13794;DHT22;31160;49.500;7.772;2023-11-19T05:31:32;10.50;99.90
13794;DHT22;31160;49.500;7.772;2023-11-19T05:34:02;10.50;99.90
13794;DHT22;31160;49.500;7.772;2023-11-19T05:36:29;10.60;99.90
13794;DHT22;31160;49.500;7.772;2023-11-19T05:38:56;10.60;99.90
13794;DHT22;31160;49.500;7.772;2023-11-19T05:41:23;10.60;99.90
13794;DHT22;31160;49.500;7.772;2023-11-19T05:43:50;10.70;99.90
13794;DHT22;31160;49.500;7.772;2023-11-19T05:46:16;10.70;99.90
13794;DHT22;31160;49.500;7.772;2023-11-19T05:48:46;10.70;99.90
13794;DHT22;31160;49.500;7.772;2023-11-19T05:51:13;10.70;99.90
13794;DHT22;31160;49.500;7.772;2023-11-19T05:53:41;10.80;99.90
13794;DHT22;31160;49.500;7.772;2023-11-19T05:56:09;10.80;99.90
13794;DHT22;31160;49.500;7.772;2023-11-19T05:58:36;10.80;99.90
13794;DHT22;31160;49.500;7.772;2023-11-19T06:01:04;10.80;99.90
13794;DHT22;31160;49.500;7.772;2023-11-19T06:03:33;10.80;99.90
13794;DHT22;31160;49.500;7.772;2023-11-19T06:06:00;10.80;99.90
13794;DHT22;31160;49.500;7.772;2023-11-19T06:08:27;10.80;99.90
13794;DHT22;31160;49.500;7.772;2023-11-19T06:10:54;10.80;99.90
13794;DHT22;31160;49.500;7.772;2023-11-19T06:13:21;10.90;99.90
13794;DHT22;31160;49.500;7.772;2023-11-19T06:15:50;10.90;99.90
13794;DHT22;31160;49.500;7.772;2023-11-19T06:18:18;11.00;99.90
13794;DHT22;31160;49.500;7.772;2023-11-19T06:20:46;10.90;99.90
13794;DHT22;31160;49.500;7.772;2023-11-19T06:23:13;10.90;99.90
13794;DHT22;31160;49.500;7.772;2023-11-19T06:25:40;10.90;99.90
13794;DHT22;31160;49.500;7.772;2023-11-19T06:28:07;10.90;99.90
13794;DHT22;31160;49.500;7.772;2023-11-19T06:30:33;11.00;99.90
13794;DHT22;31160;49.500;7.772;2023-11-19T06:33:00;11.00;99.90
13794;DHT22;31160;49.500;7.772;2023-11-19T06:35:28;11.10;99.90
13794;DHT22;31160;49.500;7.772;2023-11-19T06:38:02;11.10;99.90
13794;DHT22;31160;49.500;7.772;2023-11-19T06:40:31;11.10;99.90
13794;DHT22;31160;49.500;7.772;2023-11-19T06:42:59;11.10;99.90
13794;DHT22;31160;49.500;7.772;2023-11-19T06:45:26;11.10;99.90
13794;DHT22;31160;49.500;7.772;2023-11-19T06:47:53;11.10;99.90
13794;DHT22;31160;49.500;7.772;2023-11-19T06:50:20;11.10;99.90
13794;DHT22;31160;49.500;7.772;2023-11-19T06:52:47;11.20;99.90
13794;DHT22;31160;49.500;7.772;2023-11-19T06:55:13;11.20;99.90
13794;DHT22;31160;49.500;7.772;2023-11-19T06:57:40;11.20;99.90
13794;DHT22;31160;49.500;7.772;2023-11-19T07:00:07;11.20;99.90
13794;DHT22;31160;49.500;7.772;2023-11-19T07:02:35;11.30;99.90
13794;DHT22;31160;49.500;7.772;2023-11-19T07:05:02;11.30;99.90
13794;DHT22;31160;49.500;7.772;2023-11-19T07:07:32;11.30;99.90
13794;DHT22;31160;49.500;7.772;2023-11-19T07:09:59;11.30;99.90
13794;DHT22;31160;49.500;7.772;2023-11-19T07:12:26;11.30;99.90
13794;DHT22;31160;49.500;7.772;2023-11-19T07:14:53;11.30;99.90
13794;DHT22;31160;49.500;7.772;2023-11-19T07:17:21;11.30;99.90
13794;DHT22;31160;49.500;7.772;2023-11-19T07:19:49;11.30;99.90
13794;DHT22;31160;49.500;7.772;2023-11-19T07:22:16;11.40;99.90
13794;DHT22;31160;49.500;7.772;2023-11-19T07:24:44;11.30;99.90
13794;DHT22;31160;49.500;7.772;2023-11-19T07:27:10;11.40;99.90
13794;DHT22;31160;49.500;7.772;2023-11-19T07:29:37;11.30;99.90
13794;DHT22;31160;49.500;7.772;2023-11-19T07:32:05;11.30;99.90
13794;DHT22;31160;49.500;7.772;2023-11-19T07:34:32;11.30;99.90
13794;DHT22;31160;49.500;7.772;2023-11-19T07:36:58;11.30;99.90
13794;DHT22;31160;49.500;7.772;2023-11-19T07:39:29;11.30;99.90
13794;DHT22;31160;49.500;7.772;2023-11-19T07:41:56;11.30;99.90
13794;DHT22;31160;49.500;7.772;2023-11-19T07:44:23;11.30;99.90
13794;DHT22;31160;49.500;7.772;2023-11-19T07:46:49;11.30;99.90
13794;DHT22;31160;49.500;7.772;2023-11-19T07:49:17;11.40;99.90
13794;DHT22;31160;49.500;7.772;2023-11-19T07:51:44;11.40;99.90
13794;DHT22;31160;49.500;7.772;2023-11-19T07:54:10;11.60;99.90
13794;DHT22;31160;49.500;7.772;2023-11-19T07:56:37;11.60;99.90
13794;DHT22;31160;49.500;7.772;2023-11-19T07:59:04;11.60;99.90
13794;DHT22;31160;49.500;7.772;2023-11-19T08:01:31;11.60;99.90
13794;DHT22;31160;49.500;7.772;2023-11-19T08:03:57;11.60;99.90
13794;DHT22;31160;49.500;7.772;2023-11-19T08:06:26;11.60;99.90
13794;DHT22;31160;49.500;7.772;2023-11-19T08:08:53;11.70;99.90
13794;DHT22;31160;49.500;7.772;2023-11-19T08:11:19;11.80;99.90
13794;DHT22;31160;49.500;7.772;2023-11-19T08:13:47;11.80;99.90
13794;DHT22;31160;49.500;7.772;2023-11-19T08:16:14;11.80;99.90
13794;DHT22;31160;49.500;7.772;2023-11-19T08:18:43;11.90;99.90
13794;DHT22;31160;49.500;7.772;2023-11-19T08:21:09;11.90;99.90
13794;DHT22;31160;49.500;7.772;2023-11-19T08:23:37;11.90;99.90
13794;DHT22;31160;49.500;7.772;2023-11-19T08:26:05;11.90;99.90
13794;DHT22;31160;49.500;7.772;2023-11-19T08:28:32;11.90;99.90
13794;DHT22;31160;49.500;7.772;2023-11-19T08:31:01;11.90;99.90
13794;DHT22;31160;49.500;7.772;2023-11-19T08:33:30;11.80;99.90
13794;DHT22;31160;49.500;7.772;2023-11-19T08:35:57;11.80;99.90
13794;DHT22;31160;49.500;7.772;2023-11-19T08:38:25;11.80;99.90
13794;DHT22;31160;49.500;7.772;2023-11-19T08:40:55;11.80;99.90
13794;DHT22;31160;49.500;7.772;2023-11-19T08:43:27;11.90;99.90
13794;DHT22;31160;49.500;7.772;2023-11-19T08:45:54;11.90;99.90
13794;DHT22;31160;49.500;7.772;2023-11-19T08:48:21;11.90;99.90
13794;DHT22;31160;49.500;7.772;2023-11-19T08:50:48;12.10;99.90
13794;DHT22;31160;49.500;7.772;2023-11-19T08:53:15;12.30;99.90
13794;DHT22;31160;49.500;7.772;2023-11-19T08:55:42;12.40;99.90
13794;DHT22;31160;49.500;7.772;2023-11-19T08:58:09;12.40;99.90
13794;DHT22;31160;49.500;7.772;2023-11-19T09:00:35;12.40;99.90
13794;DHT22;31160;49.500;7.772;2023-11-19T09:03:02;12.40;99.90
13794;DHT22;31160;49.500;7.772;2023-11-19T09:05:30;12.30;99.90
13794;DHT22;31160;49.500;7.772;2023-11-19T09:07:58;12.30;99.90
13794;DHT22;31160;49.500;7.772;2023-11-19T09:10:24;12.30;99.90
13794;DHT22;31160;49.500;7.772;2023-11-19T09:12:51;12.40;99.90
13794;DHT22;31160;49.500;7.772;2023-11-19T09:15:19;12.50;99.90
13794;DHT22;31160;49.500;7.772;2023-11-19T09:17:46;12.50;99.90
13794;DHT22;31160;49.500;7.772;2023-11-19T09:20:13;12.50;99.90
13794;DHT22;31160;49.500;7.772;2023-11-19T09:22:42;12.60;99.90
13794;DHT22;31160;49.500;7.772;2023-11-19T09:25:09;12.70;99.90
13794;DHT22;31160;49.500;7.772;2023-11-19T09:27:36;12.80;99.90
13794;DHT22;31160;49.500;7.772;2023-11-19T09:30:03;13.10;99.90
13794;DHT22;31160;49.500;7.772;2023-11-19T09:32:30;13.30;99.90
13794;DHT22;31160;49.500;7.772;2023-11-19T09:34:57;13.40;99.90
13794;DHT22;31160;49.500;7.772;2023-11-19T09:37:24;13.60;99.90
13794;DHT22;31160;49.500;7.772;2023-11-19T09:39:51;13.60;99.90
13794;DHT22;31160;49.500;7.772;2023-11-19T09:42:18;13.80;99.90
13794;DHT22;31160;49.500;7.772;2023-11-19T09:44:45;13.70;99.90
13794;DHT22;31160;49.500;7.772;2023-11-19T09:47:14;13.70;99.90
13794;DHT22;31160;49.500;7.772;2023-11-19T09:49:41;13.70;99.90
13794;DHT22;31160;49.500;7.772;2023-11-19T09:52:08;13.60;99.90
13794;DHT22;31160;49.500;7.772;2023-11-19T09:54:35;13.80;99.90
13794;DHT22;31160;49.500;7.772;2023-11-19T09:57:02;13.70;99.90
13794;DHT22;31160;49.500;7.772;2023-11-19T09:59:33;13.70;99.90
13794;DHT22;31160;49.500;7.772;2023-11-19T10:01:59;13.80;99.90
13794;DHT22;31160;49.500;7.772;2023-11-19T10:04:29;13.80;99.90
13794;DHT22;31160;49.500;7.772;2023-11-19T10:06:57;13.80;99.90
13794;DHT22;31160;49.500;7.772;2023-11-19T10:09:23;13.80;99.90
13794;DHT22;31160;49.500;7.772;2023-11-19T10:11:50;13.90;99.90
13794;DHT22;31160;49.500;7.772;2023-11-19T10:14:20;13.70;99.90
13794;DHT22;31160;49.500;7.772;2023-11-19T10:16:49;13.70;99.90
13794;DHT22;31160;49.500;7.772;2023-11-19T10:19:19;13.70;99.90
13794;DHT22;31160;49.500;7.772;2023-11-19T10:21:47;13.70;99.90
13794;DHT22;31160;49.500;7.772;2023-11-19T10:24:14;13.60;99.90
13794;DHT22;31160;49.500;7.772;2023-11-19T10:26:57;13.50;99.90
13794;DHT22;31160;49.500;7.772;2023-11-19T10:29:24;13.50;99.90
13794;DHT22;31160;49.500;7.772;2023-11-19T10:31:56;13.40;99.90
13794;DHT22;31160;49.500;7.772;2023-11-19T10:34:43;13.20;99.90
13794;DHT22;31160;49.500;7.772;2023-11-19T10:37:27;13.30;99.90
13794;DHT22;31160;49.500;7.772;2023-11-19T10:39:56;13.30;99.90
13794;DHT22;31160;49.500;7.772;2023-11-19T10:42:23;13.20;99.90
13794;DHT22;31160;49.500;7.772;2023-11-19T10:44:49;13.30;99.90
13794;DHT22;31160;49.500;7.772;2023-11-19T10:47:19;13.40;99.90
13794;DHT22;31160;49.500;7.772;2023-11-19T10:50:03;13.40;99.90
13794;DHT22;31160;49.500;7.772;2023-11-19T10:52:30;13.40;99.90
13794;DHT22;31160;49.500;7.772;2023-11-19T10:55:00;13.20;99.90
13794;DHT22;31160;49.500;7.772;2023-11-19T10:57:30;13.30;99.90
13794;DHT22;31160;49.500;7.772;2023-11-19T11:00:02;13.20;99.90
13794;DHT22;31160;49.500;7.772;2023-11-19T11:02:33;13.30;99.90
13794;DHT22;31160;49.500;7.772;2023-11-19T11:05:02;13.30;99.90
13794;DHT22;31160;49.500;7.772;2023-11-19T11:07:31;13.50;99.90
13794;DHT22;31160;49.500;7.772;2023-11-19T11:10:07;13.50;99.90
13794;DHT22;31160;49.500;7.772;2023-11-19T11:12:37;13.70;99.90
13794;DHT22;31160;49.500;7.772;2023-11-19T11:15:11;13.80;99.90
13794;DHT22;31160;49.500;7.772;2023-11-19T11:17:43;13.80;99.90
13794;DHT22;31160;49.500;7.772;2023-11-19T11:20:11;13.80;99.90
13794;DHT22;31160;49.500;7.772;2023-11-19T11:22:59;13.90;99.90
13794;DHT22;31160;49.500;7.772;2023-11-19T11:25:44;14.10;99.90
13794;DHT22;31160;49.500;7.772;2023-11-19T11:36:26;14.40;99.90
13794;DHT22;31160;49.500;7.772;2023-11-19T11:38:53;14.80;99.90
13794;DHT22;31160;49.500;7.772;2023-11-19T11:41:24;15.00;99.90
13794;DHT22;31160;49.500;7.772;2023-11-19T11:43:56;14.90;99.90
13794;DHT22;31160;49.500;7.772;2023-11-19T11:49:06;14.40;99.90
13794;DHT22;31160;49.500;7.772;2023-11-19T11:54:11;14.30;99.90
13794;DHT22;31160;49.500;7.772;2023-11-19T11:56:38;14.30;99.90
13794;DHT22;31160;49.500;7.772;2023-11-19T11:59:18;14.10;99.90
13794;DHT22;31160;49.500;7.772;2023-11-19T12:01:58;14.10;99.90
13794;DHT22;31160;49.500;7.772;2023-11-19T12:04:28;14.20;99.90
13794;DHT22;31160;49.500;7.772;2023-11-19T12:09:32;14.10;99.90
13794;DHT22;31160;49.500;7.772;2023-11-19T12:12:18;14.30;99.90
13794;DHT22;31160;49.500;7.772;2023-11-19T12:20:05;14.20;99.90
13794;DHT22;31160;49.500;7.772;2023-11-19T12:22:37;14.10;99.90
13794;DHT22;31160;49.500;7.772;2023-11-19T12:25:09;14.00;99.90
13794;DHT22;31160;49.500;7.772;2023-11-19T12:27:44;13.60;99.90
13794;DHT22;31160;49.500;7.772;2023-11-19T12:30:11;13.50;99.90
13794;DHT22;31160;49.500;7.772;2023-11-19T12:32:43;13.50;99.90
13794;DHT22;31160;49.500;7.772;2023-11-19T12:35:12;13.50;99.90
13794;DHT22;31160;49.500;7.772;2023-11-19T12:37:45;13.40;99.90
13794;DHT22;31160;49.500;7.772;2023-11-19T12:42:50;13.60;99.90
13794;DHT22;31160;49.500;7.772;2023-11-19T12:45:17;13.60;99.90
13794;DHT22;31160;49.500;7.772;2023-11-19T12:47:46;13.60;99.90
13794;DHT22;31160;49.500;7.772;2023-11-19T12:50:17;13.60;99.90
13794;DHT22;31160;49.500;7.772;2023-11-19T12:52:56;13.50;99.90
13794;DHT22;31160;49.500;7.772;2023-11-19T12:55:26;13.50;99.90
13794;DHT22;31160;49.500;7.772;2023-11-19T12:57:56;13.40;99.90
13794;DHT22;31160;49.500;7.772;2023-11-19T13:00:26;13.30;99.90
13794;DHT22;31160;49.500;7.772;2023-11-19T13:02:54;13.30;99.90
13794;DHT22;31160;49.500;7.772;2023-11-19T13:05:32;13.10;99.90
13794;DHT22;31160;49.500;7.772;2023-11-19T13:08:04;13.00;99.90
13794;DHT22;31160;49.500;7.772;2023-11-19T13:10:33;13.00;99.90
13794;DHT22;31160;49.500;7.772;2023-11-19T13:13:05;13.00;99.90
13794;DHT22;31160;49.500;7.772;2023-11-19T13:15:33;12.90;99.90
13794;DHT22;31160;49.500;7.772;2023-11-19T13:18:01;12.90;99.90
13794;DHT22;31160;49.500;7.772;2023-11-19T13:20:29;13.10;99.90
13794;DHT22;31160;49.500;7.772;2023-11-19T13:23:03;13.20;99.90
13794;DHT22;31160;49.500;7.772;2023-11-19T13:25:30;13.30;99.90
13794;DHT22;31160;49.500;7.772;2023-11-19T13:27:58;13.30;99.90
13794;DHT22;31160;49.500;7.772;2023-11-19T13:30:25;13.30;99.90
13794;DHT22;31160;49.500;7.772;2023-11-19T13:32:53;13.30;99.90
13794;DHT22;31160;49.500;7.772;2023-11-19T13:35:22;13.30;99.90
13794;DHT22;31160;49.500;7.772;2023-11-19T13:37:49;13.30;99.90
13794;DHT22;31160;49.500;7.772;2023-11-19T13:40:16;13.30;99.90
13794;DHT22;31160;49.500;7.772;2023-11-19T13:42:43;13.30;99.90
13794;DHT22;31160;49.500;7.772;2023-11-19T13:45:14;13.30;99.90
13794;DHT22;31160;49.500;7.772;2023-11-19T13:47:45;13.30;99.90
13794;DHT22;31160;49.500;7.772;2023-11-19T13:50:13;13.40;99.90
13794;DHT22;31160;49.500;7.772;2023-11-19T13:52:43;13.50;99.90
13794;DHT22;31160;49.500;7.772;2023-11-19T13:55:12;13.40;99.90
13794;DHT22;31160;49.500;7.772;2023-11-19T13:57:39;13.40;99.90
13794;DHT22;31160;49.500;7.772;2023-11-19T14:00:07;13.40;99.90
13794;DHT22;31160;49.500;7.772;2023-11-19T14:02:43;13.50;99.90
13794;DHT22;31160;49.500;7.772;2023-11-19T14:05:10;13.60;99.90
13794;DHT22;31160;49.500;7.772;2023-11-19T14:07:38;13.60;99.90
13794;DHT22;31160;49.500;7.772;2023-11-19T14:10:07;13.60;99.90
13794;DHT22;31160;49.500;7.772;2023-11-19T14:12:35;13.70;99.90
13794;DHT22;31160;49.500;7.772;2023-11-19T14:15:05;13.60;99.90
13794;DHT22;31160;49.500;7.772;2023-11-19T14:17:36;13.70;99.90
13794;DHT22;31160;49.500;7.772;2023-11-19T14:20:03;13.60;99.90
13794;DHT22;31160;49.500;7.772;2023-11-19T14:22:40;13.70;99.90
13794;DHT22;31160;49.500;7.772;2023-11-19T14:25:07;13.80;99.90
13794;DHT22;31160;49.500;7.772;2023-11-19T14:27:43;14.10;99.90
13794;DHT22;31160;49.500;7.772;2023-11-19T14:30:12;14.20;99.90
13794;DHT22;31160;49.500;7.772;2023-11-19T14:32:41;14.30;99.90
13794;DHT22;31160;49.500;7.772;2023-11-19T14:35:12;14.30;99.90
13794;DHT22;31160;49.500;7.772;2023-11-19T14:37:39;14.20;99.90
13794;DHT22;31160;49.500;7.772;2023-11-19T14:40:06;14.10;99.90
13794;DHT22;31160;49.500;7.772;2023-11-19T14:42:37;14.20;99.90
13794;DHT22;31160;49.500;7.772;2023-11-19T14:45:06;14.10;99.90
13794;DHT22;31160;49.500;7.772;2023-11-19T14:47:33;14.00;99.90
13794;DHT22;31160;49.500;7.772;2023-11-19T14:50:00;14.00;99.90
13794;DHT22;31160;49.500;7.772;2023-11-19T14:52:27;13.70;99.90
13794;DHT22;31160;49.500;7.772;2023-11-19T14:54:54;13.60;99.90
13794;DHT22;31160;49.500;7.772;2023-11-19T14:57:23;13.50;99.90
13794;DHT22;31160;49.500;7.772;2023-11-19T14:59:49;13.40;99.90
13794;DHT22;31160;49.500;7.772;2023-11-19T15:02:16;13.40;99.90
13794;DHT22;31160;49.500;7.772;2023-11-19T15:04:44;13.40;99.90
13794;DHT22;31160;49.500;7.772;2023-11-19T15:07:11;13.30;99.90
13794;DHT22;31160;49.500;7.772;2023-11-19T15:09:38;13.30;99.90
13794;DHT22;31160;49.500;7.772;2023-11-19T15:12:06;13.40;99.90
13794;DHT22;31160;49.500;7.772;2023-11-19T15:14:32;13.30;99.90
13794;DHT22;31160;49.500;7.772;2023-11-19T15:16:59;13.20;99.90
13794;DHT22;31160;49.500;7.772;2023-11-19T15:19:26;13.30;99.90
13794;DHT22;31160;49.500;7.772;2023-11-19T15:21:52;13.30;99.90
13794;DHT22;31160;49.500;7.772;2023-11-19T15:24:21;13.30;99.90
13794;DHT22;31160;49.500;7.772;2023-11-19T15:26:48;13.20;99.90
13794;DHT22;31160;49.500;7.772;2023-11-19T15:29:15;13.30;99.90
13794;DHT22;31160;49.500;7.772;2023-11-19T15:31:42;13.20;99.90
13794;DHT22;31160;49.500;7.772;2023-11-19T15:34:08;13.10;99.90
13794;DHT22;31160;49.500;7.772;2023-11-19T15:36:36;13.10;99.90
13794;DHT22;31160;49.500;7.772;2023-11-19T15:39:03;13.00;99.90
13794;DHT22;31160;49.500;7.772;2023-11-19T15:41:30;13.00;99.90
13794;DHT22;31160;49.500;7.772;2023-11-19T15:43:58;13.00;99.90
13794;DHT22;31160;49.500;7.772;2023-11-19T15:46:24;12.90;99.90
13794;DHT22;31160;49.500;7.772;2023-11-19T15:48:51;12.90;99.90
13794;DHT22;31160;49.500;7.772;2023-11-19T15:51:18;12.70;99.90
13794;DHT22;31160;49.500;7.772;2023-11-19T15:53:44;12.70;99.90
13794;DHT22;31160;49.500;7.772;2023-11-19T15:56:13;12.60;99.90
13794;DHT22;31160;49.500;7.772;2023-11-19T15:58:40;12.60;99.90
13794;DHT22;31160;49.500;7.772;2023-11-19T16:01:07;12.70;99.90
13794;DHT22;31160;49.500;7.772;2023-11-19T16:03:35;12.50;99.90
13794;DHT22;31160;49.500;7.772;2023-11-19T16:06:05;12.60;99.90
13794;DHT22;31160;49.500;7.772;2023-11-19T16:08:36;12.40;99.90